Terminal Aerodrome Forecast
Issued by NWS Pueblo, CO

Home | Current Version | Previous Version | Text Only | Print | Product List | Glossary On
Versions: 1 2 3 4 5 6 7 8 9 10 11 12 13 14 15 16 17 18 19 20 21 22 23 24 25 26 27 28 29 30 31 32 33 34 35 36 37 38 39 40 41 42 43 44 45 46 47 48 49 50
000
FTUS45 KPUB 030727 AAA
TAFPUB
TAF AMD
KPUB 030727Z 0307/0406 03008KT 5SM BR FEW250
      TEMPO 0308/0309 26012KT P6SM NSW
     FM030900 29015G25KT P6SM SCT200
     FM031100 26012KT P6SM SCT200
     FM031700 01015G25KT P6SM SCT070 BKN150
     FM032000 09014KT P6SM SCT040 BKN100
     FM032300 09010KT P6SM VCSH BKN020
     FM040300 09008KT 3SM -SN BKN012=

USA.gov is the U.S. government's official web portal to all federal, state and local government web resources and services.